Aviation Digital Data Service (ADDS)

Output produced by METARs form (1207 UTC 24 March 2017)
found at http://www.aviationweather.gov/adds/metars/
 
GOGS 241100Z 36006KT CAVOK 29/15 Q1012
TAF GOGS 241130Z 2412/2512 34008KT CAVOK
       
GOGS 241100Z 36006KT CAVOK 29/15 Q1012
TAF GOGS 241130Z 2412/2512 34008KT CAVOK
       
GOOD 240800Z 36002KT CAVOK 20/15 Q1011
GOOG 240800Z 36004KT CAVOK 21/14 Q////
GOOK 240800Z 36006KT CAVOK 22/13 Q1011
GOOY 241200Z 01012KT CAVOK 23/18 Q1013 NOSIG
TAF GOOY 241130Z 2412/2518 35014KT CAVOK
       
GOSM 240800Z 00000KT CAVOK 25/08 Q1011
GOSP 240800Z 36002KT CAVOK 22/13 Q1011
GOSS 240900Z 36006KT 320V060 CAVOK 21/18 Q1012
TAF GOSS 241130Z 2412/2512 35010KT CAVOK
       
GOTT 240800Z VRB02KT CAVOK 25/23 Q1012
GOOK 240800Z 36006KT CAVOK 22/13 Q1011
GOOY 241200Z 01012KT CAVOK 23/18 Q1013 NOSIG
TAF GOOY 241130Z 2412/2518 35014KT CAVOK
       
GOSS 240900Z 36006KT 320V060 CAVOK 21/18 Q1012
TAF GOSS 241130Z 2412/2512 35010KT CAVOK
       
GOTT 240800Z VRB02KT CAVOK 25/23 Q1012